Time;durP1;ratioP1;P1;durP2;ratioP2;P2;SDS_P1;SDS_P2;PMS_P1;PMS_P2;Temp;Humidity;BMP_temperature;BMP_pressure;BME280_temperature;BME280_humidity;BME280_pressure;Samples;Min_cycle;Max_cycle;Signal;HPM_P1;HPM_P2
2024/03/09 00:00:26;;;;;;;14.48;5.05;;;;;;;;;;5071616;28;20055;-77
2024/03/09 00:02:54;;;;;;;14.40;4.22;;;;;;;;;;5072109;28;20041;-78
2024/03/09 00:05:24;;;;;;;12.93;4.10;;;;;;;;;;5070582;28;20045;-77
2024/03/09 00:07:55;;;;;;;14.88;3.40;;;;;;;;;;5072160;28;20414;-77
2024/03/09 00:10:24;;;;;;;19.38;4.00;;;;;;;;;;5070847;28;20040;-77
2024/03/09 00:12:51;;;;;;;16.50;3.92;;;;;;;;;;5074671;28;20104;-78
2024/03/09 00:15:19;;;;;;;17.00;4.45;;;;;;;;;;5075453;28;20037;-77
2024/03/09 00:17:47;;;;;;;21.35;4.45;;;;;;;;;;5075986;28;20048;-77
2024/03/09 00:20:26;;;;;;;11.95;4.30;;;;;;;;;;5074638;28;20711;-77
2024/03/09 00:22:55;;;;;;;11.68;4.97;;;;;;;;;;5073631;28;20064;-77
2024/03/09 00:25:22;;;;;;;;;;;;;;;;;;5073306;28;20045;-77
2024/03/09 00:27:52;;;;;;;12.50;4.55;;;;;;;;;;5073490;28;19921;-78
2024/03/09 00:30:19;;;;;;;25.08;4.85;;;;;;;;;;5073040;28;20287;-77
2024/03/09 00:32:48;;;;;;;15.85;4.53;;;;;;;;;;5073599;28;20044;-78
2024/03/09 00:35:15;;;;;;;14.80;5.03;;;;;;;;;;5073724;28;20060;-78
2024/03/09 00:37:42;;;;;;;15.93;5.20;;;;;;;;;;5075348;28;20428;-77
2024/03/09 00:40:10;;;;;;;13.75;4.30;;;;;;;;;;5074743;28;20032;-77
2024/03/09 00:42:38;;;;;;;15.27;4.95;;;;;;;;;;5075706;28;20047;-77
2024/03/09 00:45:06;;;;;;;12.23;4.90;;;;;;;;;;5074636;28;20045;-77
2024/03/09 00:47:35;;;;;;;16.10;4.65;;;;;;;;;;5075139;28;20177;-78
2024/03/09 00:50:04;;;;;;;19.92;5.00;;;;;;;;;;5075317;28;20040;-77
2024/03/09 00:52:31;;;;;;;16.38;5.05;;;;;;;;;;5075153;28;20098;-77
2024/03/09 00:54:58;;;;;;;13.40;5.03;;;;;;;;;;5075299;28;20127;-77
2024/03/09 00:57:25;;;;;;;18.17;5.20;;;;;;;;;;5074557;28;20052;-77
2024/03/09 00:59:52;;;;;;;15.00;4.85;;;;;;;;;;5075005;28;20044;-77
2024/03/09 01:02:19;;;;;;;15.57;4.95;;;;;;;;;;5074485;28;20068;-77
2024/03/09 01:04:49;;;;;;;13.07;4.68;;;;;;;;;;5074932;28;20120;-78
2024/03/09 01:07:19;;;;;;;14.70;4.00;;;;;;;;;;5074515;28;20399;-77
2024/03/09 01:09:49;;;;;;;11.73;4.85;;;;;;;;;;5074845;28;20331;-77
2024/03/09 01:12:17;;;;;;;19.95;4.65;;;;;;;;;;5074171;28;20033;-77
2024/03/09 01:14:48;;;;;;;15.18;4.10;;;;;;;;;;5074905;28;20037;-77
2024/03/09 01:17:21;;;;;;;13.23;4.60;;;;;;;;;;5074293;28;20045;-77
2024/03/09 01:19:48;;;;;;;11.88;4.05;;;;;;;;;;5074545;28;20040;-78
2024/03/09 01:22:15;;;;;;;10.55;4.00;;;;;;;;;;5074076;28;20040;-77
2024/03/09 01:24:42;;;;;;;15.52;4.32;;;;;;;;;;5073530;28;20047;-77
2024/03/09 01:27:09;;;;;;;17.40;4.10;;;;;;;;;;5074151;28;20036;-77
2024/03/09 01:29:35;;;;;;;11.85;3.20;;;;;;;;;;5074381;28;20045;-77
2024/03/09 01:32:05;;;;;;;17.50;3.58;;;;;;;;;;5074353;28;20431;-77
2024/03/09 01:34:32;;;;;;;12.35;3.20;;;;;;;;;;5073997;28;20037;-77
2024/03/09 01:37:01;;;;;;;15.20;3.67;;;;;;;;;;5074429;28;20058;-77
2024/03/09 01:39:30;;;;;;;20.80;3.58;;;;;;;;;;5073654;28;20051;-78
2024/03/09 01:41:57;;;;;;;10.35;3.65;;;;;;;;;;5074202;28;20057;-77
2024/03/09 01:44:23;;;;;;;16.23;3.50;;;;;;;;;;5073643;28;20174;-77
2024/03/09 01:46:50;;;;;;;15.27;3.50;;;;;;;;;;5074208;28;20044;-77
2024/03/09 01:49:18;;;;;;;10.27;3.13;;;;;;;;;;5073714;28;20494;-78
2024/03/09 01:51:47;;;;;;;10.98;2.40;;;;;;;;;;5056189;28;20036;-77
2024/03/09 01:54:23;;;;;;;12.52;3.10;;;;;;;;;;5073288;28;20043;-77
2024/03/09 01:56:51;;;;;;;12.00;2.63;;;;;;;;;;5073963;28;20048;-77
2024/03/09 01:59:19;;;;;;;15.40;2.90;;;;;;;;;;5073562;28;20063;-77
2024/03/09 02:01:45;;;;;;;16.35;3.05;;;;;;;;;;5073821;28;20064;-77
2024/03/09 02:04:13;;;;;;;16.08;3.55;;;;;;;;;;5073201;28;20376;-77
2024/03/09 02:06:40;;;;;;;15.95;3.35;;;;;;;;;;5073714;28;20041;-78
2024/03/09 02:09:08;;;;;;;15.52;3.13;;;;;;;;;;5073163;28;20045;-77
2024/03/09 02:11:42;;;;;;;16.42;2.85;;;;;;;;;;5073657;28;20045;-78
2024/03/09 02:14:09;;;;;;;15.60;2.70;;;;;;;;;;5073182;28;20080;-78
2024/03/09 02:16:36;;;;;;;9.80;2.35;;;;;;;;;;5073411;28;20387;-77
2024/03/09 02:19:06;;;;;;;10.60;2.88;;;;;;;;;;5055719;28;20060;-77
2024/03/09 02:21:34;;;;;;;13.55;3.53;;;;;;;;;;5072975;28;20383;-77
2024/03/09 02:24:11;;;;;;;15.38;2.40;;;;;;;;;;5073586;28;20127;-77
2024/03/09 02:26:38;;;;;;;16.02;2.80;;;;;;;;;;5073241;28;20352;-77
2024/03/09 02:29:05;;;;;;;10.05;2.38;;;;;;;;;;5073017;28;20032;-76
2024/03/09 02:31:32;;;;;;;10.05;2.25;;;;;;;;;;5073231;28;20057;-77
2024/03/09 02:34:01;;;;;;;10.20;2.30;;;;;;;;;;5073173;28;20044;-77
2024/03/09 02:36:32;;;;;;;11.52;2.85;;;;;;;;;;5072927;28;20044;-77
2024/03/09 02:39:00;;;;;;;15.25;2.58;;;;;;;;;;5073492;28;20050;-78
2024/03/09 02:41:27;;;;;;;12.77;2.22;;;;;;;;;;5072540;28;20041;-78
2024/03/09 02:43:55;;;;;;;11.27;2.33;;;;;;;;;;5073123;28;20479;-77
2024/03/09 02:46:25;;;;;;;10.07;2.50;;;;;;;;;;5072674;28;20044;-77
2024/03/09 02:48:55;;;;;;;15.63;3.13;;;;;;;;;;5073151;28;20056;-78
2024/03/09 02:51:26;;;;;;;10.82;2.83;;;;;;;;;;5072519;28;20131;-78
2024/03/09 02:53:53;;;;;;;10.00;2.13;;;;;;;;;;5072967;28;20049;-77
2024/03/09 02:56:20;;;;;;;10.55;2.33;;;;;;;;;;5072437;28;20037;-78
2024/03/09 02:58:48;;;;;;;8.05;2.20;;;;;;;;;;5072935;28;20136;-77
2024/03/09 03:01:20;;;;;;;13.40;2.90;;;;;;;;;;5072310;28;20043;-78
2024/03/09 03:03:58;;;;;;;7.68;2.50;;;;;;;;;;5072777;28;20049;-77
2024/03/09 03:06:31;;;;;;;8.30;2.65;;;;;;;;;;5072323;28;20135;-78
2024/03/09 03:09:10;;;;;;;11.27;3.00;;;;;;;;;;5072831;28;20041;-78
2024/03/09 03:11:40;;;;;;;;;;;;;;;;;;5072903;28;20045;-78
2024/03/09 03:14:09;;;;;;;8.23;2.45;;;;;;;;;;5072151;28;19920;-78
2024/03/09 03:16:36;;;;;;;9.30;3.05;;;;;;;;;;5072611;28;20040;-78
2024/03/09 03:19:06;;;;;;;11.27;3.20;;;;;;;;;;5072654;28;20036;-78
2024/03/09 03:21:34;;;;;;;10.13;3.08;;;;;;;;;;5072230;28;20051;-78
2024/03/09 03:24:02;;;;;;;13.85;3.33;;;;;;;;;;5072795;28;20483;-77
2024/03/09 03:26:31;;;;;;;9.40;2.70;;;;;;;;;;5072164;28;20055;-77
2024/03/09 03:29:01;;;;;;;12.38;2.70;;;;;;;;;;5072747;28;20036;-77
2024/03/09 03:31:30;;;;;;;10.23;2.72;;;;;;;;;;5072204;28;20102;-76
2024/03/09 03:33:57;;;;;;;9.43;3.65;;;;;;;;;;5072459;28;20048;-78
2024/03/09 03:36:25;;;;;;;7.43;2.70;;;;;;;;;;5072315;28;20055;-77
2024/03/09 03:38:52;;;;;;;9.20;2.60;;;;;;;;;;5072594;28;20443;-77
2024/03/09 03:41:22;;;;;;;8.15;2.80;;;;;;;;;;5072020;28;20033;-77
2024/03/09 03:43:50;;;;;;;8.80;3.00;;;;;;;;;;5072487;28;20441;-77
2024/03/09 03:46:17;;;;;;;9.90;3.42;;;;;;;;;;5072112;28;20467;-77
2024/03/09 03:48:46;;;;;;;8.57;3.40;;;;;;;;;;5076404;28;20079;-77
2024/03/09 03:51:15;;;;;;;10.77;3.30;;;;;;;;;;5075559;28;20078;-78
2024/03/09 03:53:44;;;;;;;8.20;4.20;;;;;;;;;;5076485;28;20071;-77
2024/03/09 03:56:14;;;;;;;;;;;;;;;;;;5058512;28;20043;-78
2024/03/09 03:58:41;;;;;;;12.10;3.47;;;;;;;;;;5058641;28;19920;-77
2024/03/09 04:01:09;;;;;;;9.40;4.15;;;;;;;;;;5075624;28;20367;-77
2024/03/09 04:03:37;;;;;;;8.82;3.60;;;;;;;;;;5076162;28;20045;-78
2024/03/09 04:06:05;;;;;;;12.13;3.95;;;;;;;;;;5075559;28;20041;-77
2024/03/09 04:08:33;;;;;;;9.50;3.80;;;;;;;;;;5076123;28;20045;-78
2024/03/09 04:11:00;;;;;;;7.25;3.78;;;;;;;;;;5075907;28;20091;-77
2024/03/09 04:13:27;;;;;;;8.88;4.13;;;;;;;;;;5075481;28;20041;-78
2024/03/09 04:15:55;;;;;;;9.88;3.78;;;;;;;;;;5075867;28;20071;-78
2024/03/09 04:18:23;;;;;;;8.02;4.30;;;;;;;;;;5075100;28;20040;-77
2024/03/09 04:20:50;;;;;;;13.00;3.95;;;;;;;;;;5075792;28;20039;-78
2024/03/09 04:23:16;;;;;;;11.30;4.05;;;;;;;;;;5075166;28;20474;-78
2024/03/09 04:25:46;;;;;;;11.27;4.55;;;;;;;;;;5075640;28;20128;-77
2024/03/09 04:28:20;;;;;;;11.10;4.50;;;;;;;;;;5075233;28;20131;-78
2024/03/09 04:30:51;;;;;;;13.90;4.57;;;;;;;;;;5075652;28;20425;-78
2024/03/09 04:33:19;;;;;;;7.88;3.90;;;;;;;;;;5074984;28;20048;-78
2024/03/09 04:35:47;;;;;;;11.68;4.30;;;;;;;;;;5075536;28;20123;-77
2024/03/09 04:38:15;;;;;;;22.90;5.43;;;;;;;;;;5074945;28;20041;-78
2024/03/09 04:40:43;;;;;;;11.30;5.00;;;;;;;;;;5075357;28;20045;-79
2024/03/09 04:43:13;;;;;;;11.80;5.43;;;;;;;;;;5074803;28;20051;-78
2024/03/09 04:45:41;;;;;;;17.65;5.93;;;;;;;;;;5075301;28;20568;-77
2024/03/09 04:48:09;;;;;;;11.35;5.95;;;;;;;;;;5074725;28;20040;-78
2024/03/09 04:50:38;;;;;;;11.95;6.22;;;;;;;;;;5075278;28;20486;-78
2024/03/09 04:53:06;;;;;;;11.88;5.82;;;;;;;;;;5074436;28;20040;-78
2024/03/09 04:55:35;;;;;;;11.07;5.00;;;;;;;;;;5075078;28;20043;-78
2024/03/09 04:58:13;;;;;;;12.27;5.22;;;;;;;;;;5073987;28;20083;-78
2024/03/09 05:00:42;;;;;;;8.38;5.07;;;;;;;;;;5074952;28;20041;-78
2024/03/09 05:03:13;;;;;;;10.70;5.40;;;;;;;;;;5074398;28;20036;-78
2024/03/09 05:05:42;;;;;;;11.27;5.75;;;;;;;;;;5074978;28;20047;-78
2024/03/09 05:08:10;;;;;;;11.82;4.80;;;;;;;;;;5056631;28;20040;-78
2024/03/09 05:10:37;;;;;;;13.20;4.95;;;;;;;;;;5074995;28;20098;-78
2024/03/09 05:13:06;;;;;;;11.20;4.90;;;;;;;;;;5074273;28;20482;-76
2024/03/09 05:15:34;;;;;;;13.30;5.35;;;;;;;;;;5074891;28;20502;-77
2024/03/09 05:18:03;;;;;;;;;;;;;;;;;;5075136;28;20048;-77
2024/03/09 05:20:31;;;;;;;8.93;4.68;;;;;;;;;;5074582;28;19963;-77
2024/03/09 05:23:06;;;;;;;11.15;5.65;;;;;;;;;;5074610;28;20057;-76
2024/03/09 05:25:40;;;;;;;11.23;5.32;;;;;;;;;;5074141;28;20124;-77
2024/03/09 05:28:12;;;;;;;8.90;5.55;;;;;;;;;;5074355;28;20056;-77
2024/03/09 05:30:41;;;;;;;8.32;5.57;;;;;;;;;;5074569;28;20033;-77
2024/03/09 05:33:09;;;;;;;11.95;5.25;;;;;;;;;;5074049;28;20519;-77
2024/03/09 05:35:36;;;;;;;10.63;4.47;;;;;;;;;;5074285;28;20044;-77
2024/03/09 05:38:07;;;;;;;8.32;4.03;;;;;;;;;;5074466;28;20490;-78
2024/03/09 05:40:36;;;;;;;8.15;4.47;;;;;;;;;;5073994;28;20052;-77
2024/03/09 05:43:13;;;;;;;8.00;3.70;;;;;;;;;;5074110;28;20048;-78
2024/03/09 05:45:41;;;;;;;6.63;3.80;;;;;;;;;;5073673;28;20048;-78
2024/03/09 05:48:08;;;;;;;7.60;3.87;;;;;;;;;;5056065;28;20467;-78
2024/03/09 05:50:37;;;;;;;6.97;3.75;;;;;;;;;;5073958;28;20135;-77
2024/03/09 05:53:05;;;;;;;7.03;3.90;;;;;;;;;;5073697;28;20045;-76
2024/03/09 05:55:33;;;;;;;8.45;3.95;;;;;;;;;;5073813;28;20123;-78
2024/03/09 05:58:00;;;;;;;6.63;3.88;;;;;;;;;;5074004;28;20132;-78
2024/03/09 06:00:29;;;;;;;7.90;3.70;;;;;;;;;;5055603;28;22802;-76
2024/03/09 06:03:01;;;;;;;8.45;3.10;;;;;;;;;;5073768;28;20044;-77
2024/03/09 06:05:30;;;;;;;5.78;3.90;;;;;;;;;;5073538;28;20559;-77
2024/03/09 06:07:58;;;;;;;7.28;3.67;;;;;;;;;;5073754;28;20041;-76
2024/03/09 06:10:26;;;;;;;9.05;3.65;;;;;;;;;;5073036;28;20054;-77
2024/03/09 06:12:53;;;;;;;10.10;3.65;;;;;;;;;;5073646;28;20036;-76
2024/03/09 06:15:24;;;;;;;10.82;3.90;;;;;;;;;;5072810;28;20131;-77
2024/03/09 06:17:56;;;;;;;12.52;3.78;;;;;;;;;;5073542;28;20043;-78
2024/03/09 06:20:27;;;;;;;6.43;3.60;;;;;;;;;;5072922;28;20059;-78
2024/03/09 06:22:56;;;;;;;9.02;3.70;;;;;;;;;;5073534;28;20054;-78
2024/03/09 06:25:25;;;;;;;7.60;3.78;;;;;;;;;;5072830;28;20063;-77
2024/03/09 06:27:54;;;;;;;8.93;3.38;;;;;;;;;;5073326;28;20384;-77
2024/03/09 06:30:22;;;;;;;6.32;3.17;;;;;;;;;;5072989;28;20369;-77
2024/03/09 06:32:57;;;;;;;9.10;3.58;;;;;;;;;;5073348;28;20078;-77
2024/03/09 06:35:28;;;;;;;13.32;3.78;;;;;;;;;;5072602;28;20479;-77
2024/03/09 06:38:00;;;;;;;5.75;3.28;;;;;;;;;;5073162;28;20375;-78
2024/03/09 06:40:31;;;;;;;6.03;3.20;;;;;;;;;;5072456;28;20049;-77
2024/03/09 06:43:03;;;;;;;8.15;3.08;;;;;;;;;;5073277;28;20041;-77
2024/03/09 06:45:30;;;;;;;8.55;3.58;;;;;;;;;;5072908;28;20049;-76
2024/03/09 06:47:57;;;;;;;8.13;3.10;;;;;;;;;;5073248;28;20043;-77
2024/03/09 06:50:29;;;;;;;7.20;3.00;;;;;;;;;;5072602;28;20467;-77
2024/03/09 06:52:56;;;;;;;8.23;3.50;;;;;;;;;;5072731;28;20040;-77
2024/03/09 06:55:26;;;;;;;8.23;2.88;;;;;;;;;;5054791;28;20098;-78
2024/03/09 06:57:54;;;;;;;6.93;3.25;;;;;;;;;;5073036;28;20122;-77
2024/03/09 07:00:22;;;;;;;6.20;3.35;;;;;;;;;;5072509;28;20093;-77
2024/03/09 07:02:53;;;;;;;6.78;3.17;;;;;;;;;;5085475;28;20032;-76
2024/03/09 07:05:20;;;;;;;6.32;3.15;;;;;;;;;;5082656;28;20044;-77
2024/03/09 07:07:48;;;;;;;10.90;3.45;;;;;;;;;;5076899;28;20052;-77
2024/03/09 07:10:15;;;;;;;7.25;3.20;;;;;;;;;;5090988;28;20046;-77
2024/03/09 07:12:42;;;;;;;6.63;3.22;;;;;;;;;;5087616;28;20459;-77
2024/03/09 07:15:15;;;;;;;6.63;3.17;;;;;;;;;;5054505;28;20098;-76
2024/03/09 07:17:44;;;;;;;11.15;3.50;;;;;;;;;;5072565;28;20494;-76
2024/03/09 07:20:12;;;;;;;6.45;3.20;;;;;;;;;;5072116;28;20132;-77
2024/03/09 07:22:45;;;;;;;6.82;2.83;;;;;;;;;;5075745;28;20041;-77
2024/03/09 07:25:16;;;;;;;5.55;2.38;;;;;;;;;;5078359;28;20475;-76
2024/03/09 07:27:43;;;;;;;5.10;2.47;;;;;;;;;;5076165;28;20036;-77
2024/03/09 07:30:13;;;;;;;4.70;2.47;;;;;;;;;;5076507;28;20449;-77
2024/03/09 07:32:45;;;;;;;7.20;3.22;;;;;;;;;;5076870;28;20055;-77
2024/03/09 07:35:15;;;;;;;4.70;2.60;;;;;;;;;;5076375;28;20071;-76
2024/03/09 07:37:47;;;;;;;7.00;2.40;;;;;;;;;;5070472;28;20395;-77
2024/03/09 07:40:16;;;;;;;6.85;1.98;;;;;;;;;;5072353;28;20037;-77
2024/03/09 07:42:43;;;;;;;3.67;1.55;;;;;;;;;;5075275;28;20376;-77
2024/03/09 07:45:13;;;;;;;2.42;1.10;;;;;;;;;;5074543;28;20040;-77
2024/03/09 07:47:42;;;;;;;3.42;1.27;;;;;;;;;;5074822;28;20483;-77
2024/03/09 07:50:14;;;;;;;7.07;1.00;;;;;;;;;;5074538;28;20494;-77
2024/03/09 07:52:55;;;;;;;3.42;0.98;;;;;;;;;;5074682;28;20130;-77
2024/03/09 07:55:24;;;;;;;2.38;1.00;;;;;;;;;;5074184;28;20036;-76
2024/03/09 07:58:00;;;;;;;;;;;;;;;;;;5074715;28;20051;-77
2024/03/09 08:00:48;;;;;;;5.28;1.30;;;;;;;;;;5082319;28;19985;-77
2024/03/09 08:03:17;;;;;;;4.65;1.10;;;;;;;;;;5074404;28;20438;-77
2024/03/09 08:05:43;;;;;;;3.85;1.02;;;;;;;;;;5087062;28;20555;-77
2024/03/09 08:08:11;;;;;;;2.88;1.10;;;;;;;;;;5073902;28;20041;-77
2024/03/09 08:10:45;;;;;;;4.00;1.10;;;;;;;;;;5074708;28;20482;-77
2024/03/09 08:13:13;;;;;;;3.67;1.02;;;;;;;;;;5073590;28;20095;-77
2024/03/09 08:15:40;;;;;;;3.92;1.02;;;;;;;;;;5074167;28;20052;-76
2024/03/09 08:18:10;;;;;;;4.18;1.10;;;;;;;;;;5088105;28;20059;-77
2024/03/09 08:20:38;;;;;;;4.68;1.00;;;;;;;;;;5079451;28;20071;-77
2024/03/09 08:23:06;;;;;;;1.13;0.75;;;;;;;;;;5073444;28;20033;-76
2024/03/09 08:25:33;;;;;;;;;;;;;;;;;;5077168;28;20047;-77
2024/03/09 08:28:00;;;;;;;2.15;0.85;;;;;;;;;;5080254;28;20892;-77
2024/03/09 08:30:27;;;;;;;4.13;0.95;;;;;;;;;;5082599;28;20906;-77
2024/03/09 08:32:54;;;;;;;2.38;0.73;;;;;;;;;;5074203;28;20090;-77
2024/03/09 08:35:21;;;;;;;2.00;0.50;;;;;;;;;;5075028;28;20056;-77
2024/03/09 08:37:50;;;;;;;1.20;0.60;;;;;;;;;;5082402;28;20417;-77
2024/03/09 08:40:30;;;;;;;2.35;0.80;;;;;;;;;;5076934;28;20032;-76
2024/03/09 08:42:58;;;;;;;1.73;0.82;;;;;;;;;;5065413;28;20028;-77
2024/03/09 08:45:29;;;;;;;1.23;0.50;;;;;;;;;;5076046;28;20058;-77
2024/03/09 08:47:56;;;;;;;0.80;0.50;;;;;;;;;;5086770;28;20082;-77
2024/03/09 08:50:26;;;;;;;2.15;0.65;;;;;;;;;;5078122;28;20049;-77
2024/03/09 08:52:55;;;;;;;0.60;0.50;;;;;;;;;;5073598;28;20049;-76
2024/03/09 08:55:23;;;;;;;0.50;0.40;;;;;;;;;;5055338;28;20040;-77
2024/03/09 08:57:49;;;;;;;1.70;0.40;;;;;;;;;;5073384;28;20429;-77
2024/03/09 09:00:24;;;;;;;1.42;0.70;;;;;;;;;;5077356;28;20040;-77
2024/03/09 09:02:56;;;;;;;1.95;0.60;;;;;;;;;;5076273;28;20036;-77
2024/03/09 09:05:26;;;;;;;1.20;0.50;;;;;;;;;;5084073;28;20055;-77
2024/03/09 09:07:55;;;;;;;1.95;0.40;;;;;;;;;;5074496;28;20127;-77
2024/03/09 09:10:25;;;;;;;1.33;0.63;;;;;;;;;;5075101;28;20076;-77
2024/03/09 09:12:52;;;;;;;1.58;0.50;;;;;;;;;;5073217;28;20628;-77
2024/03/09 09:15:24;;;;;;;1.23;0.60;;;;;;;;;;5082330;28;20528;-77
2024/03/09 09:17:53;;;;;;;2.17;0.70;;;;;;;;;;5073209;28;20427;-77
2024/03/09 09:20:20;;;;;;;2.03;0.50;;;;;;;;;;5072813;28;20094;-76
2024/03/09 09:22:47;;;;;;;2.25;0.60;;;;;;;;;;5073006;28;20124;-77
2024/03/09 09:25:16;;;;;;;2.83;0.73;;;;;;;;;;5074209;28;20517;-77
2024/03/09 09:27:44;;;;;;;1.30;0.80;;;;;;;;;;5074845;28;20072;-77
2024/03/09 09:30:11;;;;;;;1.08;0.77;;;;;;;;;;5072716;28;20048;-77
2024/03/09 09:32:40;;;;;;;2.42;0.80;;;;;;;;;;5062482;28;20040;-77
2024/03/09 09:35:09;;;;;;;2.08;0.80;;;;;;;;;;5066882;28;20546;-76
2024/03/09 09:37:36;;;;;;;2.20;0.95;;;;;;;;;;5068675;28;20092;-77
2024/03/09 09:40:06;;;;;;;3.78;0.93;;;;;;;;;;5066236;28;20381;-77
2024/03/09 09:42:35;;;;;;;1.90;1.27;;;;;;;;;;5069767;28;20406;-77
2024/03/09 09:45:02;;;;;;;1.27;0.93;;;;;;;;;;5070399;28;20033;-77
2024/03/09 09:47:30;;;;;;;2.58;1.00;;;;;;;;;;5047922;28;20055;-77
2024/03/09 09:49:57;;;;;;;4.50;1.25;;;;;;;;;;5041436;28;20041;-76
2024/03/09 09:52:25;;;;;;;2.28;1.33;;;;;;;;;;5061364;28;20071;-77
2024/03/09 09:54:55;;;;;;;2.58;1.17;;;;;;;;;;5068454;28;20398;-77
2024/03/09 09:57:24;;;;;;;2.58;1.17;;;;;;;;;;5062781;28;20127;-77
2024/03/09 09:59:52;;;;;;;4.45;1.35;;;;;;;;;;5063394;28;20036;-77
2024/03/09 10:02:21;;;;;;;5.07;1.23;;;;;;;;;;5068003;28;20037;-77
2024/03/09 10:04:50;;;;;;;3.55;1.02;;;;;;;;;;5059689;28;20399;-77
2024/03/09 10:07:17;;;;;;;1.80;0.80;;;;;;;;;;5061332;28;20043;-77
2024/03/09 10:09:47;;;;;;;5.78;1.00;;;;;;;;;;5059259;28;20040;-76
2024/03/09 10:12:22;;;;;;;1.65;0.70;;;;;;;;;;5068098;28;20475;-76
2024/03/09 10:14:49;;;;;;;1.42;0.77;;;;;;;;;;5061469;28;20605;-76
2024/03/09 10:17:19;;;;;;;2.65;0.70;;;;;;;;;;5060687;28;20470;-76
2024/03/09 10:19:51;;;;;;;1.00;0.65;;;;;;;;;;5066389;28;20048;-76
2024/03/09 10:22:18;;;;;;;6.30;0.70;;;;;;;;;;5061846;28;20049;-77
2024/03/09 10:24:52;;;;;;;6.78;0.73;;;;;;;;;;5065980;28;20124;-77
2024/03/09 10:27:21;;;;;;;3.92;0.90;;;;;;;;;;5065431;28;20037;-77
2024/03/09 10:29:48;;;;;;;4.82;0.80;;;;;;;;;;5061915;28;20087;-78
2024/03/09 10:32:14;;;;;;;3.38;1.10;;;;;;;;;;5055524;28;20052;-77
2024/03/09 10:34:42;;;;;;;2.53;0.60;;;;;;;;;;5072975;28;20127;-76
2024/03/09 10:37:17;;;;;;;5.40;0.93;;;;;;;;;;5066348;28;20037;-77
2024/03/09 10:39:44;;;;;;;5.93;1.35;;;;;;;;;;5061759;28;20044;-77
2024/03/09 10:42:15;;;;;;;8.18;1.20;;;;;;;;;;5074017;28;20055;-76
2024/03/09 10:44:42;;;;;;;9.43;2.63;;;;;;;;;;5074193;28;20036;-76
2024/03/09 10:47:12;;;;;;;7.22;1.52;;;;;;;;;;5064457;28;20479;-76
2024/03/09 10:49:44;;;;;;;5.28;0.90;;;;;;;;;;5070894;28;20090;-76
2024/03/09 10:52:16;;;;;;;8.55;1.65;;;;;;;;;;5058872;28;20036;-77
2024/03/09 10:54:55;;;;;;;3.90;1.05;;;;;;;;;;5068001;28;20040;-76
2024/03/09 10:57:27;;;;;;;3.38;1.08;;;;;;;;;;5071101;28;20098;-76
2024/03/09 10:59:57;;;;;;;3.28;1.00;;;;;;;;;;5071181;28;20393;-76
2024/03/09 11:02:25;;;;;;;10.02;3.70;;;;;;;;;;5068322;28;20056;-76
2024/03/09 11:04:54;;;;;;;5.03;1.88;;;;;;;;;;5068555;28;20538;-77
2024/03/09 11:07:21;;;;;;;4.60;0.80;;;;;;;;;;5065288;28;20098;-75
2024/03/09 11:09:49;;;;;;;5.05;1.40;;;;;;;;;;5059670;28;20139;-76
2024/03/09 11:12:20;;;;;;;5.63;2.13;;;;;;;;;;5060098;28;20028;-77
2024/03/09 11:14:53;;;;;;;7.00;1.38;;;;;;;;;;5061398;28;20041;-77
2024/03/09 11:17:21;;;;;;;7.53;2.00;;;;;;;;;;5033665;28;20045;-77
2024/03/09 11:19:49;;;;;;;;;;;;;;;;;;5044226;28;20045;-76
2024/03/09 11:22:39;;;;;;;4.88;1.27;;;;;;;;;;5088656;28;20010;-77
2024/03/09 11:25:11;;;;;;;4.95;0.88;;;;;;;;;;5070089;28;20036;-75
2024/03/09 11:27:41;;;;;;;3.33;1.25;;;;;;;;;;5055200;28;20140;-76
2024/03/09 11:30:09;;;;;;;7.07;1.35;;;;;;;;;;5082070;28;20047;-76
2024/03/09 11:32:41;;;;;;;6.47;1.60;;;;;;;;;;5072848;28;20055;-76
2024/03/09 11:35:27;;;;;;;5.28;1.25;;;;;;;;;;5065468;28;20036;-75
2024/03/09 11:38:00;;;;;;;5.32;0.95;;;;;;;;;;5064802;28;20094;-75
2024/03/09 11:40:34;;;;;;;5.40;1.08;;;;;;;;;;5068119;28;20160;-76
2024/03/09 11:43:04;;;;;;;4.00;1.35;;;;;;;;;;5068627;28;20132;-75
2024/03/09 11:45:34;;;;;;;5.95;0.82;;;;;;;;;;5062216;28;20081;-76
2024/03/09 11:48:05;;;;;;;5.55;0.77;;;;;;;;;;5077687;28;20044;-76
2024/03/09 11:50:32;;;;;;;5.43;0.80;;;;;;;;;;5056048;28;20485;-76
2024/03/09 11:52:59;;;;;;;4.63;0.95;;;;;;;;;;5049020;28;20072;-76
2024/03/09 11:55:26;;;;;;;4.97;1.13;;;;;;;;;;5049249;28;20100;-76
2024/03/09 11:57:53;;;;;;;8.07;1.20;;;;;;;;;;5048599;28;20068;-76
2024/03/09 12:00:20;;;;;;;5.88;1.58;;;;;;;;;;5048673;28;20029;-76
2024/03/09 12:02:46;;;;;;;7.00;2.67;;;;;;;;;;5049792;28;20053;-76
2024/03/09 12:05:16;;;;;;;8.32;2.00;;;;;;;;;;5049277;28;20041;-76
2024/03/09 12:07:46;;;;;;;5.47;1.20;;;;;;;;;;5050710;28;20045;-76
2024/03/09 12:10:13;;;;;;;6.30;0.93;;;;;;;;;;5053702;28;20056;-76
2024/03/09 12:12:44;;;;;;;4.20;0.90;;;;;;;;;;5037477;28;20498;-76
2024/03/09 12:15:11;;;;;;;6.15;1.65;;;;;;;;;;5047941;28;20490;-76
2024/03/09 12:17:40;;;;;;;5.53;1.40;;;;;;;;;;5058769;28;20446;-76
2024/03/09 12:20:08;;;;;;;5.88;2.38;;;;;;;;;;5064262;28;20090;-75
2024/03/09 12:22:35;;;;;;;7.57;1.98;;;;;;;;;;5077075;28;20400;-75
2024/03/09 12:25:06;;;;;;;5.78;0.93;;;;;;;;;;5076194;28;20051;-76
2024/03/09 12:27:35;;;;;;;4.78;1.30;;;;;;;;;;5071219;28;20483;-76
2024/03/09 12:30:09;;;;;;;6.72;1.60;;;;;;;;;;5054921;28;20044;-76
2024/03/09 12:32:37;;;;;;;9.93;6.35;;;;;;;;;;5039845;28;20056;-76
2024/03/09 12:35:04;;;;;;;17.02;10.98;;;;;;;;;;5060494;28;20029;-76
2024/03/09 12:37:31;;;;;;;6.70;3.33;;;;;;;;;;5064312;28;20052;-76
2024/03/09 12:40:10;;;;;;;6.93;2.90;;;;;;;;;;5068286;28;20135;-76
2024/03/09 12:42:42;;;;;;;7.00;2.80;;;;;;;;;;5065641;28;20498;-76
2024/03/09 12:45:20;;;;;;;6.68;2.25;;;;;;;;;;5064321;28;20052;-75
2024/03/09 12:47:50;;;;;;;9.15;2.45;;;;;;;;;;5064511;28;20041;-76
2024/03/09 12:50:19;;;;;;;7.57;1.67;;;;;;;;;;5063328;28;20028;-77
2024/03/09 12:52:48;;;;;;;8.82;1.40;;;;;;;;;;5063965;28;20132;-76
2024/03/09 12:55:20;;;;;;;12.25;3.60;;;;;;;;;;5055802;28;20043;-76
2024/03/09 12:57:50;;;;;;;9.00;3.00;;;;;;;;;;5057260;28;20037;-78
2024/03/09 13:00:22;;;;;;;7.53;1.75;;;;;;;;;;5062976;28;20041;-75
2024/03/09 13:02:50;;;;;;;16.23;6.95;;;;;;;;;;5062648;28;20467;-76
2024/03/09 13:05:24;;;;;;;9.43;3.00;;;;;;;;;;5063512;28;20382;-76
2024/03/09 13:07:56;;;;;;;8.77;1.38;;;;;;;;;;5064226;28;20127;-76
2024/03/09 13:10:45;;;;;;;8.60;1.45;;;;;;;;;;5063105;28;20037;-76
2024/03/09 13:13:14;;;;;;;8.40;1.48;;;;;;;;;;5073385;28;20075;-76
2024/03/09 13:15:44;;;;;;;16.65;2.28;;;;;;;;;;5073241;28;20364;-75
2024/03/09 13:18:12;;;;;;;10.50;1.80;;;;;;;;;;5072154;28;20417;-76
2024/03/09 13:20:41;;;;;;;17.25;2.45;;;;;;;;;;5072236;28;20356;-76
2024/03/09 13:23:13;;;;;;;9.32;1.50;;;;;;;;;;5072655;28;20123;-76
2024/03/09 13:25:42;;;;;;;16.45;2.22;;;;;;;;;;5072980;28;20541;-75
2024/03/09 13:28:11;;;;;;;12.88;1.85;;;;;;;;;;5072580;28;20045;-76
2024/03/09 13:30:41;;;;;;;11.82;1.65;;;;;;;;;;5073934;28;20045;-76
2024/03/09 13:33:09;;;;;;;11.23;2.20;;;;;;;;;;5052537;28;21196;-79
2024/03/09 13:35:37;;;;;;;14.45;2.67;;;;;;;;;;5042058;28;20099;-76
2024/03/09 13:38:05;;;;;;;11.30;2.20;;;;;;;;;;5063360;28;20072;-75
2024/03/09 13:40:32;;;;;;;8.63;1.52;;;;;;;;;;5065972;28;20045;-76
2024/03/09 13:42:59;;;;;;;10.23;2.38;;;;;;;;;;5064307;28;20065;-76
2024/03/09 13:45:27;;;;;;;15.45;3.40;;;;;;;;;;5035948;28;20041;-77
2024/03/09 13:48:11;;;;;;;18.52;3.80;;;;;;;;;;5054112;28;20073;-77
2024/03/09 13:50:38;;;;;;;18.55;2.75;;;;;;;;;;5054715;28;20036;-78
2024/03/09 13:53:05;;;;;;;11.43;2.65;;;;;;;;;;5066434;28;20475;-76
2024/03/09 13:55:35;;;;;;;19.38;3.42;;;;;;;;;;5063562;28;20033;-76
2024/03/09 13:58:04;;;;;;;21.02;2.80;;;;;;;;;;5060657;28;20124;-77
2024/03/09 14:00:31;;;;;;;18.15;2.65;;;;;;;;;;5057090;28;20037;-76
2024/03/09 14:02:59;;;;;;;13.88;1.85;;;;;;;;;;5053779;28;20045;-77
2024/03/09 14:05:26;;;;;;;12.30;2.38;;;;;;;;;;5053708;28;20041;-75
2024/03/09 14:07:57;;;;;;;12.15;1.92;;;;;;;;;;5053891;28;20049;-77
2024/03/09 14:10:38;;;;;;;10.82;2.17;;;;;;;;;;5053426;28;20056;-77
2024/03/09 14:13:08;;;;;;;10.40;2.05;;;;;;;;;;5037601;28;20068;-76
2024/03/09 14:15:37;;;;;;;11.45;2.45;;;;;;;;;;5036103;28;20041;-76
2024/03/09 14:18:04;;;;;;;;;;;;;;;;;;5053533;28;20040;-76
2024/03/09 14:20:31;;;;;;;20.10;2.60;;;;;;;;;;5053597;28;19921;-77
2024/03/09 14:22:58;;;;;;;18.52;2.53;;;;;;;;;;5053591;28;20044;-76
2024/03/09 14:25:29;;;;;;;17.92;2.42;;;;;;;;;;5060092;28;20109;-77
2024/03/09 14:27:56;;;;;;;12.48;2.25;;;;;;;;;;5073368;28;20044;-77
2024/03/09 14:30:33;;;;;;;12.80;2.63;;;;;;;;;;5068596;28;20491;-77
2024/03/09 14:33:00;;;;;;;13.07;2.38;;;;;;;;;;5070351;28;20048;-76
2024/03/09 14:35:32;;;;;;;18.55;3.05;;;;;;;;;;5072913;28;20053;-77
2024/03/09 14:38:00;;;;;;;14.63;2.50;;;;;;;;;;5073228;28;20102;-77
2024/03/09 14:40:34;;;;;;;16.63;3.25;;;;;;;;;;5072621;28;20045;-76
2024/03/09 14:43:03;;;;;;;21.67;3.80;;;;;;;;;;5073454;28;20123;-75
2024/03/09 14:45:32;;;;;;;14.60;2.40;;;;;;;;;;5073153;28;20043;-76
2024/03/09 14:47:59;;;;;;;21.90;3.70;;;;;;;;;;5052987;28;20471;-75
2024/03/09 14:50:30;;;;;;;18.42;3.67;;;;;;;;;;5052587;28;21037;-75
2024/03/09 14:52:59;;;;;;;19.05;4.57;;;;;;;;;;5053166;28;20037;-75